Time;durP1;ratioP1;P1;durP2;ratioP2;P2;SDS_P1;SDS_P2;PMS_P1;PMS_P2;Temp;Humidity;BMP_temperature;BMP_pressure;BME280_temperature;BME280_humidity;BME280_pressure;Samples;Min_cycle;Max_cycle;Signal;HPM_P1;HPM_P2
2022/06/11 00:01:20;;;;;;;;;;;;;;;15.24;100.00;99022.56;5114875;28;19923;-75
2022/06/11 00:03:49;;;;;;;;;;;;;;;15.52;100.00;99025.22;5116823;28;19951;-74
2022/06/11 00:07:00;;;;;;;;;;;;;;;15.48;100.00;99023.78;5111616;27;19913;-76
2022/06/11 00:09:28;;;;;;;;;;;;;;;15.61;100.00;99033.72;5111654;28;19931;-76
2022/06/11 00:11:55;;;;;;;;;;;;;;;15.27;100.00;99013.22;5107611;28;19931;-77
2022/06/11 00:14:24;;;;;;;;;;;;;;;15.38;100.00;99013.66;5110027;28;19924;-76
2022/06/11 00:16:51;;;;;;;;;;;;;;;15.27;100.00;99014.00;5076299;28;19931;-76
2022/06/11 00:19:21;;;;;;;;;;;;;;;15.39;100.00;99016.03;5111565;28;19924;-76
2022/06/11 00:21:50;;;;;;;;;;;;;;;15.29;100.00;99014.34;5111269;28;19931;-76
2022/06/11 00:24:18;;;;;;;;;;;;;;;15.24;100.00;99019.75;5111350;28;19930;-76
2022/06/11 00:26:46;;;;;;;;;;;;;;;15.26;100.00;99018.09;5111183;28;19924;-76
2022/06/11 00:29:15;;;;;;;;;;;;;;;15.19;100.00;99018.31;5092743;28;19924;-76
2022/06/11 00:31:42;;;;;;;;;;;;;;;14.85;100.00;99015.50;5111108;28;20359;-76
2022/06/11 00:34:10;;;;;;;;;;;;;;;15.09;100.00;99013.06;5111197;28;19973;-76
2022/06/11 00:36:37;;;;;;;;;;;;;;;14.92;100.00;99014.47;5111140;28;19931;-76
2022/06/11 00:39:06;;;;;;;;;;;;;;;15.14;100.00;99015.31;5110753;28;19928;-76
2022/06/11 00:41:35;;;;;;;;;;;;;;;15.17;100.00;99020.81;5110972;28;19931;-76
2022/06/11 00:44:02;;;;;;;;;;;;;;;15.09;100.00;99019.47;5110663;28;19924;-76
2022/06/11 00:46:41;;;;;;;;;;;;;;;14.89;100.00;99016.16;5092707;28;20019;-76
2022/06/11 00:49:21;;;;;;;;;;;;;;;14.92;100.00;99022.91;5110779;28;19928;-75
2022/06/11 00:51:51;;;;;;;;;;;;;;;14.87;100.00;99023.47;5110624;28;19924;-75
2022/06/11 00:54:21;;;;;;;;;;;;;;;14.85;100.00;99032.38;5092666;28;20015;-75
2022/06/11 00:56:52;;;;;;;;;;;;;;;14.89;100.00;99016.16;5110651;28;19959;-77
2022/06/11 00:59:24;;;;;;;;;;;;;;;14.96;100.00;99015.13;5092544;28;20312;-74
2022/06/11 01:01:51;;;;;;;;;;;;;;;14.97;100.00;99017.50;5110371;28;20020;-77
2022/06/11 01:04:36;;;;;;;;;;;;;;;14.85;100.00;99015.50;5110509;28;20000;-77
2022/06/11 01:07:17;;;;;;;;;;;;;;;14.68;100.00;99022.50;5110440;28;20007;-78
2022/06/11 01:09:44;;;;;;;;;;;;;;;14.79;100.00;99028.56;5110765;28;19930;-77
2022/06/11 01:12:24;;;;;;;;;;;;;;;14.75;100.00;99033.53;5109941;28;19924;-77
2022/06/11 01:15:06;;;;;;;;;;;;;;;14.87;100.00;99012.22;5110305;28;20294;-77
2022/06/11 01:17:48;;;;;;;;;;;;;;;14.65;100.00;99019.78;5100952;28;20069;-77
2022/06/11 01:20:26;;;;;;;;;;;;;;;14.72;100.00;99017.56;5078578;28;20074;-77
2022/06/11 01:22:53;;;;;;;;;;;;;;;14.73;100.00;99024.75;5096572;28;19928;-77
2022/06/11 01:25:23;;;;;;;;;;;;;;;14.70;100.00;99014.41;5096524;28;19931;-77
2022/06/11 01:27:58;;;;;;;;;;;;;;;14.73;100.00;99024.75;5077993;28;20001;-77
2022/06/11 01:30:27;;;;;;;;;;;;;;;14.83;100.00;99020.00;5078627;28;19924;-77
2022/06/11 01:33:11;;;;;;;;;;;;;;;14.63;100.00;99016.66;5078283;28;19946;-77
2022/06/11 01:35:45;;;;;;;;;;;;;;;14.72;100.00;99023.19;5096413;28;20383;-77
2022/06/11 01:38:17;;;;;;;;;;;;;;;14.76;100.00;99012.59;5096520;28;20280;-77
2022/06/11 01:41:14;;;;;;;;;;;;;;;15.01;100.00;99012.50;5095793;28;19931;-77
2022/06/11 01:43:43;;;;;;;;;;;;;;;14.76;100.00;99023.03;5096163;28;20394;-77
2022/06/11 01:46:22;;;;;;;;;;;;;;;14.66;100.00;99018.56;5096057;28;19954;-74
2022/06/11 01:49:02;;;;;;;;;;;;;;;14.77;100.00;99025.41;5077962;28;20440;-77
2022/06/11 01:51:49;;;;;;;;;;;;;;;14.54;100.00;99022.94;5095900;28;20287;-77
2022/06/11 01:54:36;;;;;;;;;;;;;;;14.64;100.00;99030.28;5095725;28;19962;-78
2022/06/11 01:57:05;;;;;;;;;;;;;;;14.66;100.00;99030.59;5095295;28;20368;-78
2022/06/11 01:59:50;;;;;;;;;;;;;;;14.51;100.00;99028.72;5095728;28;20348;-78
2022/06/11 02:02:37;;;;;;;;;;;;;;;14.66;100.00;99022.16;5095619;28;19924;-78
2022/06/11 02:05:12;;;;;;;;;;;;;;;14.81;100.00;99028.09;5073985;28;19924;-78
2022/06/11 02:07:46;;;;;;;;;;;;;;;14.66;100.00;99024.97;5095854;28;20283;-78
2022/06/11 02:10:22;;;;;;;;;;;;;;;14.51;100.00;99023.84;5060749;28;19931;-78
2022/06/11 02:12:58;;;;;;;;;;;;;;;14.51;100.00;99018.22;5095515;28;19924;-77
2022/06/11 02:15:29;;;;;;;;;;;;;;;14.55;100.00;99018.91;5095688;28;19977;-77
2022/06/11 02:18:10;;;;;;;;;;;;;;;14.62;100.00;99015.06;5095544;28;19923;-77
2022/06/11 02:20:43;;;;;;;;;;;;;;;14.27;100.00;99017.78;5095429;28;19924;-77
2022/06/11 02:23:13;;;;;;;;;;;;;;;14.48;100.00;99018.38;5095524;28;19935;-77
2022/06/11 02:25:56;;;;;;;;;;;;;;;14.48;100.00;99019.13;5095029;28;19924;-77
2022/06/11 02:28:25;;;;;;;;;;;;;;;14.49;100.00;99009.47;5094166;28;19924;-78
2022/06/11 02:30:53;;;;;;;;;;;;;;;14.70;100.00;99008.78;5095186;28;19931;-78
2022/06/11 02:33:21;;;;;;;;;;;;;;;14.48;100.00;99009.94;5095135;28;19928;-77
2022/06/11 02:35:56;;;;;;;;;;;;;;;14.54;100.00;99014.50;5095234;28;20264;-77
2022/06/11 02:38:25;;;;;;;;;;;;;;;14.60;100.00;99015.50;5095110;28;19925;-77
2022/06/11 02:40:59;;;;;;;;;;;;;;;14.33;100.00;99012.38;5094644;28;19924;-78
2022/06/11 02:43:27;;;;;;;;;;;;;;;14.43;100.00;99011.28;5095106;28;19924;-78
2022/06/11 02:45:54;;;;;;;;;;;;;;;14.41;100.00;99014.53;5076897;28;19924;-77
2022/06/11 02:48:22;;;;;;;;;;;;;;;14.37;100.00;99013.84;5094771;28;20440;-78
2022/06/11 02:50:50;;;;;;;;;;;;;;;14.44;100.00;99022.06;5076681;28;19924;-77
2022/06/11 02:53:18;;;;;;;;;;;;;;;14.26;100.00;99023.88;5094594;28;19924;-77
2022/06/11 02:55:45;;;;;;;;;;;;;;;14.34;100.00;99019.59;5094564;28;19963;-77
2022/06/11 02:58:13;;;;;;;;;;;;;;;14.44;100.00;99024.09;5076504;28;19931;-78
2022/06/11 03:00:45;;;;;;;;;;;;;;;14.28;100.00;99024.22;5094644;28;19928;-77
2022/06/11 03:03:13;;;;;;;;;;;;;;;14.39;100.00;99021.81;5076878;28;19924;-78
2022/06/11 03:05:41;;;;;;;;;;;;;;;14.32;100.00;99017.25;5094309;28;19981;-78
2022/06/11 03:08:09;;;;;;;;;;;;;;;14.52;100.00;99017.00;5076173;28;19924;-78
2022/06/11 03:10:37;;;;;;;;;;;;;;;14.34;100.00;99022.41;5076415;28;19924;-77
2022/06/11 03:13:05;;;;;;;;;;;;;;;14.46;100.00;99016.00;5076566;28;19924;-78
2022/06/11 03:15:33;;;;;;;;;;;;;;;14.51;100.00;99021.03;5094287;28;19924;-77
2022/06/11 03:18:01;;;;;;;;;;;;;;;14.27;100.00;99022.63;5076204;28;19935;-78
2022/06/11 03:20:29;;;;;;;;;;;;;;;14.34;100.00;99020.38;5094256;28;20372;-78
2022/06/11 03:22:57;;;;;;;;;;;;;;;14.22;100.00;99018.31;5094053;28;20344;-77
2022/06/11 03:25:24;;;;;;;;;;;;;;;14.36;100.00;99017.09;5109800;28;19998;-77
2022/06/11 03:27:52;;;;;;;;;;;;;;;14.25;100.00;99022.31;5094065;28;19927;-78
2022/06/11 03:30:19;;;;;;;;;;;;;;;14.32;100.00;99022.06;5076044;28;19974;-77
2022/06/11 03:32:46;;;;;;;;;;;;;;;14.26;100.00;99024.66;5094160;28;19924;-77
2022/06/11 03:35:14;;;;;;;;;;;;;;;14.08;100.00;99018.78;5094169;28;19931;-78
2022/06/11 03:37:41;;;;;;;;;;;;;;;14.20;100.00;99028.44;5093520;28;19928;-78
2022/06/11 03:40:09;;;;;;;;;;;;;;;14.12;100.00;99025.06;5093698;28;19924;-77
2022/06/11 03:42:36;;;;;;;;;;;;;;;14.06;100.00;99026.06;5093956;28;19931;-77
2022/06/11 03:45:04;;;;;;;;;;;;;;;14.04;100.00;99025.75;5093914;28;19924;-77
2022/06/11 03:47:31;;;;;;;;;;;;;;;14.04;100.00;99028.56;5075741;28;19928;-77
2022/06/11 03:49:58;;;;;;;;;;;;;;;13.81;100.00;99023.22;5093731;28;19930;-77
2022/06/11 03:52:29;;;;;;;;;;;;;;;13.75;100.00;99033.44;5109076;28;19931;-78
2022/06/11 03:54:57;;;;;;;;;;;;;;;13.63;100.00;99039.78;5075868;28;19967;-77
2022/06/11 03:57:24;;;;;;;;;;;;;;;13.73;100.00;99027.47;5076103;28;20022;-77
2022/06/11 03:59:51;;;;;;;;;;;;;;;13.73;100.00;99041.50;5093739;28;19928;-78
2022/06/11 04:02:19;;;;;;;;;;;;;;;13.81;100.00;99042.88;5093529;28;19930;-78
2022/06/11 04:04:46;;;;;;;;;;;;;;;13.84;100.00;99042.75;5093537;28;19935;-77
2022/06/11 04:07:13;;;;;;;;;;;;;;;13.69;100.00;99043.63;5075339;28;20023;-77
2022/06/11 04:09:42;;;;;;;;;;;;;;;13.84;100.00;99044.78;5093541;28;19932;-77
2022/06/11 04:12:12;;;;;;;;;;;;;;;13.86;100.00;99036.69;5075757;28;19924;-77
2022/06/11 04:14:39;;;;;;;;;;;;;;;13.83;100.00;99040.38;5075718;28;20375;-77
2022/06/11 04:17:08;;;;;;;;;;;;;;;13.75;100.00;99050.28;5058951;28;19924;-77
2022/06/11 04:19:36;;;;;;;;;;;;;;;13.92;100.00;99051.75;5075609;28;19924;-77
2022/06/11 04:22:04;;;;;;;;;;;;;;;13.81;100.00;99051.31;5093105;28;20009;-77
2022/06/11 04:24:31;;;;;;;;;;;;;;;13.86;100.00;99051.53;5075618;28;19924;-77
2022/06/11 04:26:59;;;;;;;;;;;;;;;14.10;100.00;99057.66;5075411;28;20035;-78
2022/06/11 04:29:29;;;;;;;;;;;;;;;14.01;100.00;99051.91;5075295;28;20408;-77
2022/06/11 04:31:57;;;;;;;;;;;;;;;14.13;100.00;99053.97;5058831;28;19959;-77
2022/06/11 04:34:25;;;;;;;;;;;;;;;14.01;100.00;99047.06;5093361;28;19963;-77
2022/06/11 04:36:52;;;;;;;;;;;;;;;14.02;100.00;99054.28;5093166;28;19924;-77
2022/06/11 04:39:21;;;;;;;;;;;;;;;14.12;100.00;99047.53;5093692;28;20387;-77
2022/06/11 04:41:49;;;;;;;;;;;;;;;14.15;100.00;99051.47;5093372;28;19951;-77
2022/06/11 04:44:16;;;;;;;;;;;;;;;14.05;100.00;99055.41;5093339;28;19975;-77
2022/06/11 04:46:44;;;;;;;;;;;;;;;14.14;100.00;99063.94;5093382;28;19924;-78
2022/06/11 04:49:11;;;;;;;;;;;;;;;14.42;100.00;99060.28;5093322;28;19934;-80
2022/06/11 04:51:39;;;;;;;;;;;;;;;14.63;100.00;99059.59;5093873;28;19924;-81
2022/06/11 04:54:06;;;;;;;;;;;;;;;14.61;100.00;99056.47;5097525;28;19943;-79
2022/06/11 04:56:33;;;;;;;;;;;;;;;14.62;100.00;99043.97;5097475;28;19931;-81
2022/06/11 04:59:01;;;;;;;;;;;;;;;14.55;100.00;99055.47;5097525;28;19924;-80
2022/06/11 05:01:30;;;;;;;;;;;;;;;14.55;100.00;99063.91;5096572;28;19924;-83
2022/06/11 05:03:57;;;;;;;;;;;;;;;14.46;100.00;99066.59;5078861;28;19924;-80
2022/06/11 05:06:26;;;;;;;;;;;;;;;14.74;100.00;99059.28;5079249;28;19966;-80
2022/06/11 05:08:53;;;;;;;;;;;;;;;14.22;100.00;99056.88;5097418;28;20274;-80
2022/06/11 05:11:20;;;;;;;;;;;;;;;14.38;100.00;99073.69;5112838;28;19932;-80
2022/06/11 05:13:47;;;;;;;;;;;;;;;14.37;100.00;99070.06;5097298;28;19924;-80
2022/06/11 05:16:17;;;;;;;;;;;;;;;14.56;100.00;99062.66;5079223;28;20010;-80
2022/06/11 05:18:44;;;;;;;;;;;;;;;14.56;100.00;99065.47;5078829;28;20015;-81
2022/06/11 05:21:11;;;;;;;;;;;;;;;14.86;100.00;99072.56;5096900;28;19928;-78
2022/06/11 05:23:39;;;;;;;;;;;;;;;14.82;100.00;99066.22;5097172;28;19958;-80
2022/06/11 05:26:09;;;;;;;;;;;;;;;14.88;100.00;99059.59;5062152;28;19930;-80
2022/06/11 05:28:36;;;;;;;;;;;;;;;14.87;100.00;99046.78;5096770;28;19928;-80
2022/06/11 05:31:04;;;;;;;;;;;;;;;14.95;100.00;99048.09;5078783;28;19939;-80
2022/06/11 05:33:31;;;;;;;;;;;;;;;14.92;100.00;99051.81;5096539;28;19936;-81
2022/06/11 05:35:58;;;;;;;;;;;;;;;15.03;100.00;99052.25;5096685;28;20322;-80
2022/06/11 05:38:27;;;;;;;;;;;;;;;14.80;100.00;99037.78;5096715;28;19924;-80
2022/06/11 05:40:56;;;;;;;;;;;;;;;15.03;100.00;99054.25;5096436;28;19931;-80
2022/06/11 05:43:23;;;;;;;;;;;;;;;14.93;100.00;99047.78;5078646;28;20398;-81
2022/06/11 05:45:53;;;;;;;;;;;;;;;15.17;100.00;99048.97;5078480;28;19951;-78
2022/06/11 05:48:22;;;;;;;;;;;;;;;15.43;100.00;99044.84;5078309;28;19963;-78
2022/06/11 05:50:51;;;;;;;;;;;;;;;15.51;100.00;99043.34;5078510;28;19931;-78
2022/06/11 05:53:20;;;;;;;;;;;;;;;15.86;100.00;99033.59;5096511;28;19932;-78
2022/06/11 05:55:48;;;;;;;;;;;;;;;16.05;100.00;99035.25;5044890;28;19924;-78
2022/06/11 05:58:22;;;;;;;;;;;;;;;16.08;100.00;99036.38;5096262;28;19955;-80
2022/06/11 06:00:54;;;;;;;;;;;;;;;16.09;100.00;99027.47;5061360;28;19924;-78
2022/06/11 06:03:22;;;;;;;;;;;;;;;16.01;100.00;99031.00;5094456;28;19927;-78
2022/06/11 06:05:49;;;;;;;;;;;;;;;16.06;100.00;99034.03;5095937;28;19924;-78
2022/06/11 06:08:17;;;;;;;;;;;;;;;15.94;100.00;99029.25;5096198;28;19931;-78
2022/06/11 06:10:44;;;;;;;;;;;;;;;16.17;100.00;99036.44;5095940;28;19924;-78
2022/06/11 06:15:56;;;;;;;;;;;;;;;16.24;100.00;99039.75;5111765;28;20014;-80
2022/06/11 06:18:24;;;;;;;;;;;;;;;16.46;100.00;99047.41;5061023;28;20283;-79
2022/06/11 06:20:51;;;;;;;;;;;;;;;16.50;100.00;99053.69;5061072;28;19935;-78
2022/06/11 06:23:18;;;;;;;;;;;;;;;16.70;100.00;99052.06;5077658;28;19931;-78
2022/06/11 06:25:46;;;;;;;;;;;;;;;16.52;100.00;99056.84;5077665;28;19924;-78
2022/06/11 06:28:13;;;;;;;;;;;;;;;16.47;100.00;99048.97;5095586;28;20271;-81
2022/06/11 06:30:40;;;;;;;;;;;;;;;16.29;100.00;99046.81;5077638;28;19946;-80
2022/06/11 06:33:07;;;;;;;;;;;;;;;16.14;100.00;99052.25;5060831;28;20267;-80
2022/06/11 06:35:35;;;;;;;;;;;;;;;16.35;100.00;99059.06;5095430;28;20260;-80
2022/06/11 06:38:02;;;;;;;;;;;;;;;16.22;100.00;99058.41;5095529;28;19947;-80
2022/06/11 06:40:29;;;;;;;;;;;;;;;16.12;100.00;99068.81;5077316;28;19952;-81
2022/06/11 06:42:59;;;;;;;;;;;;;;;16.34;100.00;99065.19;5095335;28;20375;-80
2022/06/11 06:45:26;;;;;;;;;;;;;;;16.74;100.00;99057.53;5095013;28;19932;-80
2022/06/11 06:47:53;;;;;;;;;;;;;;;17.23;100.00;99061.91;5076855;28;20396;-78
2022/06/11 06:50:20;;;;;;;;;;;;;;;17.78;100.00;99045.78;5110846;28;20383;-78
2022/06/11 06:52:48;;;;;;;;;;;;;;;18.60;100.00;99050.00;5077219;28;19924;-78
2022/06/11 06:55:15;;;;;;;;;;;;;;;18.82;100.00;99046.91;5094942;28;19924;-75
2022/06/11 06:58:15;;;;;;;;;;;;;;;19.19;100.00;99043.38;5091553;28;19939;-81
2022/06/11 07:00:44;;;;;;;;;;;;;;;19.96;100.00;99040.59;5091756;28;20303;-82
2022/06/11 07:03:13;;;;;;;;;;;;;;;20.28;100.00;99040.41;5091713;28;19925;-81
2022/06/11 07:05:42;;;;;;;;;;;;;;;20.82;100.00;99036.94;5073665;28;20318;-82
2022/06/11 07:08:11;;;;;;;;;;;;;;;20.65;100.00;99035.88;5090866;28;19985;-82
2022/06/11 07:10:40;;;;;;;;;;;;;;;20.65;100.00;99035.09;5108064;28;19931;-82
2022/06/11 07:13:07;;;;;;;;;;;;;;;20.83;100.00;99032.81;5107096;28;20406;-82
2022/06/11 07:15:35;;;;;;;;;;;;;;;21.42;100.00;99027.72;5089944;28;20299;-83
2022/06/11 07:18:08;;;;;;;;;;;;;;;21.43;100.00;99015.09;5091168;28;20352;-83
2022/06/11 07:20:36;;;;;;;;;;;;;;;21.57;100.00;99036.19;5106696;28;20015;-84
2022/06/11 07:23:06;;;;;;;;;;;;;;;21.50;100.00;99034.53;5091439;28;20383;-83
2022/06/11 07:25:33;;;;;;;;;;;;;;;21.87;100.00;99044.03;5107120;28;20613;-82
2022/06/11 07:28:05;;;;;;;;;;;;;;;21.94;100.00;99037.91;5090997;28;19929;-83
2022/06/11 07:30:34;;;;;;;;;;;;;;;22.60;100.00;99035.72;5106148;28;19947;-83
2022/06/11 07:33:07;;;;;;;;;;;;;;;21.97;100.00;99034.06;5091202;28;20015;-83
2022/06/11 07:35:35;;;;;;;;;;;;;;;22.08;100.00;99042.72;5106137;28;20031;-83
2022/06/11 07:38:08;;;;;;;;;;;;;;;22.09;100.00;99049.97;5089666;28;19924;-83
2022/06/11 07:40:35;;;;;;;;;;;;;;;21.70;100.00;99050.78;5090908;28;19964;-83
2022/06/11 07:43:06;;;;;;;;;;;;;;;21.80;100.00;99050.16;5072722;28;20332;-83
2022/06/11 07:45:35;;;;;;;;;;;;;;;21.99;100.00;99056.34;5089594;28;19932;-83
2022/06/11 07:48:02;;;;;;;;;;;;;;;22.01;100.00;99048.84;5089095;28;19928;-82
2022/06/11 07:50:31;;;;;;;;;;;;;;;22.10;100.00;99048.69;5089315;28;20027;-83
2022/06/11 07:53:25;;;;;;;;;;;;;;;22.44;100.00;99056.28;5088781;28;19931;-82
2022/06/11 07:55:53;;;;;;;;;;;;;;;22.59;100.00;99053.31;5055499;28;20403;-82
2022/06/11 07:58:23;;;;;;;;;;;;;;;21.92;100.00;99068.91;5072472;28;19933;-82
2022/06/11 08:00:51;;;;;;;;;;;;;;;21.66;100.00;99053.84;5090346;28;19924;-82
2022/06/11 08:03:18;;;;;;;;;;;;;;;21.81;100.00;99060.25;5072558;28;20256;-83
2022/06/11 08:05:46;;;;;;;;;;;;;;;22.14;100.00;99069.19;5089044;28;19931;-83
2022/06/11 08:08:13;;;;;;;;;;;;;;;22.70;100.00;99079.78;5066628;28;20386;-83
2022/06/11 08:10:41;;;;;;;;;;;;;;;23.16;100.00;99085.31;5075517;28;19931;-81
2022/06/11 08:13:09;;;;;;;;;;;;;;;21.99;100.00;99081.94;5076541;28;19925;-81
2022/06/11 08:15:38;;;;;;;;;;;;;;;21.78;100.00;99069.78;5075687;28;19925;-81
2022/06/11 08:18:06;;;;;;;;;;;;;;;21.25;100.00;99092.06;5075789;28;19925;-82
2022/06/11 08:20:42;;;;;;;;;;;;;;;21.33;100.00;99096.06;5079715;28;19948;-82
2022/06/11 08:23:31;;;;;;;;;;;;;;;22.06;100.00;99079.44;5069495;28;19925;-81
2022/06/11 08:26:34;;;;;;;;;;;;;;;;;;;;;
2022/06/11 08:34:23;;;;;;;;;;;;;;;22.42;100.00;99077.97;5036519;28;19924;-81
2022/06/11 08:36:50;;;;;;;;;;;;;;;22.32;100.00;99073.75;5078174;28;19964;-85
2022/06/11 08:39:17;;;;;;;;;;;;;;;22.90;100.00;99071.16;5071314;28;19924;-85
2022/06/11 08:41:44;;;;;;;;;;;;;;;22.47;100.00;99091.47;5067068;28;19928;-85
2022/06/11 08:47:49;;;;;;;;;;;;;;;22.22;100.00;99103.66;5074765;28;20269;-81
2022/06/11 08:50:20;;;;;;;;;;;;;;;21.89;100.00;99094.72;5075932;28;19929;-82
2022/06/11 08:52:49;;;;;;;;;;;;;;;22.66;100.00;99109.78;5074571;28;19939;-82
2022/06/11 08:55:18;;;;;;;;;;;;;;;21.94;100.00;99102.56;5075594;28;20038;-82
2022/06/11 08:57:54;;;;;;;;;;;;;;;21.43;100.00;99103.19;5085817;28;19932;-83
2022/06/11 09:00:27;;;;;;;;;;;;;;;20.94;100.00;99112.50;5081585;28;19924;-82
2022/06/11 09:03:09;;;;;;;;;;;;;;;20.34;100.00;99123.59;5083651;28;19936;-82
2022/06/11 09:05:45;;;;;;;;;;;;;;;20.23;100.00;99126.25;5074015;28;20253;-82
2022/06/11 09:08:13;;;;;;;;;;;;;;;20.02;100.00;99118.84;5074155;28;19930;-82
2022/06/11 09:10:40;;;;;;;;;;;;;;;20.12;100.00;99128.81;5082464;28;19924;-82
2022/06/11 09:13:26;;;;;;;;;;;;;;;20.13;100.00;99123.97;5083440;28;19947;-82
2022/06/11 09:16:00;;;;;;;;;;;;;;;20.18;100.00;99123.28;5037095;28;19925;-82
2022/06/11 09:18:34;;;;;;;;;;;;;;;20.07;100.00;99115.31;5052727;28;20000;-82
2022/06/11 09:21:08;;;;;;;;;;;;;;;20.79;100.00;99120.28;5084041;28;19960;-82
2022/06/11 09:24:00;;;;;;;;;;;;;;;20.53;100.00;99118.50;5068304;28;20022;-82
2022/06/11 09:26:43;;;;;;;;;;;;;;;20.61;100.00;99125.38;5051313;28;19925;-82
2022/06/11 09:29:10;;;;;;;;;;;;;;;20.58;100.00;99132.03;5052191;28;19933;-82
2022/06/11 09:31:43;;;;;;;;;;;;;;;21.16;100.00;99121.38;5053915;28;19925;-82
2022/06/11 09:34:37;;;;;;;;;;;;;;;21.12;100.00;99137.88;5054090;28;19960;-82
2022/06/11 09:37:13;;;;;;;;;;;;;;;21.10;100.00;99133.94;5050356;28;20299;-83
2022/06/11 09:39:45;;;;;;;;;;;;;;;20.83;100.00;99137.09;5053535;28;20445;-82
2022/06/11 09:42:33;;;;;;;;;;;;;;;20.56;100.00;99145.91;5053878;28;19925;-82
2022/06/11 09:45:00;;;;;;;;;;;;;;;20.42;100.00;99155.19;5052401;28;19928;-82
2022/06/11 09:47:40;;;;;;;;;;;;;;;20.31;100.00;99152.16;5054477;28;20015;-82
2022/06/11 09:50:25;;;;;;;;;;;;;;;19.86;100.00;99161.03;5054664;28;19925;-82
2022/06/11 09:53:11;;;;;;;;;;;;;;;20.02;100.00;99164.22;5055088;28;20364;-81
2022/06/11 09:55:45;;;;;;;;;;;;;;;19.99;100.00;99168.03;5069775;28;20474;-82
2022/06/11 09:58:18;;;;;;;;;;;;;;;19.73;100.00;99173.38;5053752;28;19971;-81
2022/06/11 10:00:59;;;;;;;;;;;;;;;19.39;100.00;99195.78;5053587;28;19931;-81
2022/06/11 10:03:40;;;;;;;;;;;;;;;19.41;100.00;99182.75;5054719;28;19924;-81
2022/06/11 10:06:18;;;;;;;;;;;;;;;19.61;100.00;99187.81;5069582;28;19928;-79
2022/06/11 10:08:47;;;;;;;;;;;;;;;19.39;100.00;99193.75;5054023;28;19987;-78
2022/06/11 10:11:21;;;;;;;;;;;;;;;19.19;100.00;99199.16;5053828;28;19925;-78
2022/06/11 10:17:13;;;;;;;;;;;;;;;18.89;100.00;99203.06;5053953;28;19932;-79
2022/06/11 10:20:07;;;;;;;;;;;;;;;18.63;100.00;99213.16;5053694;28;19925;-79
2022/06/11 10:22:38;;;;;;;;;;;;;;;18.72;100.00;99201.84;5036090;28;19977;-79
2022/06/11 10:25:06;;;;;;;;;;;;;;;18.98;100.00;99208.69;5071996;28;19929;-78
2022/06/11 10:27:36;;;;;;;;;;;;;;;19.19;100.00;99189.91;5073666;28;20007;-79
2022/06/11 10:30:22;;;;;;;;;;;;;;;19.96;100.00;99199.41;5073671;28;19932;-78
2022/06/11 10:32:50;;;;;;;;;;;;;;;20.37;100.00;99189.94;5073429;28;20059;-79
2022/06/11 10:35:21;;;;;;;;;;;;;;;20.24;100.00;99193.03;5072362;28;20024;-78
2022/06/11 10:37:52;;;;;;;;;;;;;;;19.98;100.00;99208.22;5073479;28;19924;-80
2022/06/11 10:40:31;;;;;;;;;;;;;;;19.73;100.00;99192.47;5072601;28;19986;-80
2022/06/11 10:42:58;;;;;;;;;;;;;;;19.81;100.00;99204.22;5072666;28;19924;-80
2022/06/11 10:45:25;;;;;;;;;;;;;;;19.88;100.00;99203.84;5073710;28;19928;-80
2022/06/11 10:47:54;;;;;;;;;;;;;;;20.05;100.00;99199.31;5072361;28;19931;-81
2022/06/11 10:50:24;;;;;;;;;;;;;;;19.91;100.00;99205.72;5089218;28;19991;-80
2022/06/11 10:52:53;;;;;;;;;;;;;;;19.76;100.00;99196.38;5072263;28;19931;-81
2022/06/11 10:55:33;;;;;;;;;;;;;;;19.96;100.00;99188.03;5072415;28;19924;-81
2022/06/11 10:58:04;;;;;;;;;;;;;;;20.07;100.00;99193.97;5072406;28;19924;-81
2022/06/11 11:00:39;;;;;;;;;;;;;;;20.62;100.00;99180.84;5074287;28;19932;-82
2022/06/11 11:03:14;;;;;;;;;;;;;;;20.35;100.00;99181.13;5072392;28;19924;-82
2022/06/11 11:05:58;;;;;;;;;;;;;;;20.82;100.00;99163.94;5072320;28;19924;-83
2022/06/11 11:08:25;;;;;;;;;;;;;;;20.68;100.00;99176.06;5056069;28;19968;-82
2022/06/11 11:10:54;;;;;;;;;;;;;;;20.77;100.00;99165.41;5072255;28;20011;-82
2022/06/11 11:13:32;;;;;;;;;;;;;;;19.57;100.00;99185.16;5072364;28;19924;-78
2022/06/11 11:16:06;;;;;;;;;;;;;;;19.30;100.00;99196.63;5074586;28;19982;-85
2022/06/11 11:18:40;;;;;;;;;;;;;;;18.82;100.00;99197.72;5072296;28;19924;-88
2022/06/11 11:21:26;;;;;;;;;;;;;;;18.58;100.00;99194.03;5055585;28;19925;-88
2022/06/11 11:24:02;;;;;;;;;;;;;;;19.01;100.00;99204.91;5039298;28;19924;-91
2022/06/11 11:26:39;;;;;;;;;;;;;;;19.51;100.00;99192.75;5073127;28;20331;-86
2022/06/11 11:29:15;;;;;;;;;;;;;;;19.97;100.00;99196.06;5055713;28;20594;-87
2022/06/11 11:31:48;;;;;;;;;;;;;;;20.35;100.00;99181.91;5072532;28;19925;-89
2022/06/11 11:34:22;;;;;;;;;;;;;;;20.54;100.00;99179.69;5073021;28;20015;-90
2022/06/11 11:36:50;;;;;;;;;;;;;;;20.52;100.00;99173.72;5056227;28;19978;-92
2022/06/11 11:39:20;;;;;;;;;;;;;;;20.39;100.00;99176.03;5072406;28;19947;-88
2022/06/11 11:41:47;;;;;;;;;;;;;;;20.33;100.00;99177.97;5055410;28;20290;-88
2022/06/11 11:44:18;;;;;;;;;;;;;;;20.61;100.00;99182.13;5058337;28;19924;-82
2022/06/11 11:46:48;;;;;;;;;;;;;;;20.40;100.00;99166.28;5059646;28;19936;-82
2022/06/11 11:49:19;;;;;;;;;;;;;;;20.03;100.00;99170.66;5077255;28;19935;-84
2022/06/11 11:51:46;;;;;;;;;;;;;;;20.26;100.00;99178.38;5076893;28;19928;-84
2022/06/11 11:54:18;;;;;;;;;;;;;;;20.42;100.00;99169.38;5059480;28;20445;-84
2022/06/11 11:56:59;;;;;;;;;;;;;;;21.18;100.00;99170.00;5075415;28;20066;-84
2022/06/11 11:59:29;;;;;;;;;;;;;;;21.20;100.00;99161.75;5076052;28;20390;-87
2022/06/11 12:01:57;;;;;;;;;;;;;;;21.38;100.00;99157.88;5058803;28;19954;-86
2022/06/11 12:04:31;;;;;;;;;;;;;;;20.74;100.00;99157.88;5075228;28;20326;-85
2022/06/11 12:07:01;;;;;;;;;;;;;;;20.86;100.00;99164.50;5059223;28;20019;-85
2022/06/11 12:09:32;;;;;;;;;;;;;;;20.91;100.00;99160.97;5075465;28;20014;-86
2022/06/11 12:12:05;;;;;;;;;;;;;;;20.82;100.00;99170.41;5091370;28;19924;-85
2022/06/11 12:14:36;;;;;;;;;;;;;;;20.43;100.00;99149.03;5075648;28;20606;-86
2022/06/11 12:17:29;;;;;;;;;;;;;;;20.46;100.00;99159.41;5075360;28;19935;-83
2022/06/11 12:20:00;;;;;;;;;;;;;;;20.32;100.00;99154.53;5054900;28;19973;-84
2022/06/11 12:22:47;;;;;;;;;;;;;;;20.50;100.00;99154.34;5055989;28;19931;-84
2022/06/11 12:25:24;;;;;;;;;;;;;;;20.78;100.00;99154.84;5055912;28;19928;-84
2022/06/11 12:27:52;;;;;;;;;;;;;;;21.17;100.00;99159.13;5056022;28;19932;-84
2022/06/11 12:30:25;;;;;;;;;;;;;;;21.30;100.00;99153.88;5073506;28;20367;-84
2022/06/11 12:32:52;;;;;;;;;;;;;;;20.53;100.00;99141.22;5072869;28;19931;-84
2022/06/11 12:35:38;;;;;;;;;;;;;;;20.38;100.00;99146.91;5075355;28;19932;-83
2022/06/11 12:38:13;;;;;;;;;;;;;;;20.92;100.00;99169.00;5057232;28;19925;-83
2022/06/11 12:40:59;;;;;;;;;;;;;;;21.23;100.00;99143.69;5073765;28;19924;-84
2022/06/11 12:43:44;;;;;;;;;;;;;;;21.00;100.00;99146.69;5073566;28;19928;-84
2022/06/11 12:46:21;;;;;;;;;;;;;;;21.40;100.00;99133.38;5074643;28;19925;-84
2022/06/11 12:48:54;;;;;;;;;;;;;;;20.70;100.00;99160.13;5056788;28;20371;-84
2022/06/11 12:51:24;;;;;;;;;;;;;;;20.43;100.00;99163.22;5073432;28;19931;-83
2022/06/11 12:53:54;;;;;;;;;;;;;;;19.74;100.00;99160.00;5040088;28;19931;-83
2022/06/11 12:56:24;;;;;;;;;;;;;;;19.56;100.00;99177.94;5073312;28;19951;-83
2022/06/11 12:58:58;;;;;;;;;;;;;;;19.73;100.00;99160.50;5073368;28;20299;-83
2022/06/11 13:01:37;;;;;;;;;;;;;;;19.98;100.00;99169.28;5073472;28;19925;-83
2022/06/11 13:04:33;;;;;;;;;;;;;;;20.21;100.00;99156.34;5074141;28;19940;-83
2022/06/11 13:07:03;;;;;;;;;;;;;;;20.14;100.00;99168.09;5073208;28;20405;-83
2022/06/11 13:09:39;;;;;;;;;;;;;;;20.02;100.00;99157.75;5073270;28;20358;-84
2022/06/11 13:12:18;;;;;;;;;;;;;;;19.95;100.00;99160.97;5056503;28;19977;-83
2022/06/11 13:14:54;;;;;;;;;;;;;;;20.01;100.00;99168.31;5074549;28;19924;-84
2022/06/11 13:17:25;;;;;;;;;;;;;;;20.04;100.00;99167.34;5056206;28;20020;-83